sensor_id;sensor_type;location;lat;lon;timestamp;pressure;altitude;pressure_sealevel;temperature;humidity
60228;BME280;46091;46.512;6.626;2023-06-10T07:59:24;96606.75;;;21.65;74.36
60228;BME280;46091;46.512;6.626;2023-06-10T08:01:28;96608.63;;;22.00;73.91
60228;BME280;46091;46.512;6.626;2023-06-10T08:03:31;96614.03;;;22.26;73.36
60228;BME280;46091;46.512;6.626;2023-06-10T08:05:34;96612.91;;;22.47;72.20
60228;BME280;46091;46.512;6.626;2023-06-10T08:07:37;96613.38;;;22.64;72.29
60228;BME280;46091;46.512;6.626;2023-06-10T08:09:40;96612.28;;;22.81;71.63
60228;BME280;46091;46.512;6.626;2023-06-10T08:11:43;96610.34;;;22.97;71.52
60228;BME280;46091;46.512;6.626;2023-06-10T08:13:46;96608.13;;;23.09;70.86
60228;BME280;46091;46.512;6.626;2023-06-10T08:15:50;96615.06;;;23.25;70.79
60228;BME280;46091;46.512;6.626;2023-06-10T08:17:55;96603.09;;;23.41;70.60
60228;BME280;46091;46.512;6.626;2023-06-10T08:19:58;96618.94;;;23.53;69.61
60228;BME280;46091;46.512;6.626;2023-06-10T08:22:01;96612.47;;;23.59;69.77
60228;BME280;46091;46.512;6.626;2023-06-10T08:24:04;96611.88;;;23.62;69.58
60228;BME280;46091;46.512;6.626;2023-06-10T08:26:08;96611.31;;;23.65;69.49
60228;BME280;46091;46.512;6.626;2023-06-10T08:28:10;96601.59;;;23.69;68.97
60228;BME280;46091;46.512;6.626;2023-06-10T08:30:13;96613.44;;;23.73;68.69
60228;BME280;46091;46.512;6.626;2023-06-10T08:32:18;96608.53;;;23.80;68.47
60228;BME280;46091;46.512;6.626;2023-06-10T08:34:21;96615.47;;;23.87;68.24
60228;BME280;46091;46.512;6.626;2023-06-10T08:36:24;96607.34;;;23.92;68.29
60228;BME280;46091;46.512;6.626;2023-06-10T08:38:27;96615.13;;;23.98;68.26
60228;BME280;46091;46.512;6.626;2023-06-10T08:40:29;96607.88;;;23.94;67.95
60228;BME280;46091;46.512;6.626;2023-06-10T08:42:34;96606.56;;;23.91;67.95
60228;BME280;46091;46.512;6.626;2023-06-10T08:44:40;96607.06;;;23.93;67.81
60228;BME280;46091;46.512;6.626;2023-06-10T08:46:44;96610.59;;;23.89;67.89
60228;BME280;46091;46.512;6.626;2023-06-10T08:48:53;96610.84;;;23.92;67.63
60228;BME280;46091;46.512;6.626;2023-06-10T08:50:57;96605.69;;;23.96;67.07
60228;BME280;46091;46.512;6.626;2023-06-10T08:53:00;96611.31;;;23.99;67.48
60228;BME280;46091;46.512;6.626;2023-06-10T08:55:10;96613.72;;;24.01;66.77
60228;BME280;46091;46.512;6.626;2023-06-10T08:57:14;96613.22;;;23.99;67.08
60228;BME280;46091;46.512;6.626;2023-06-10T08:59:18;96614.81;;;24.05;66.35
60228;BME280;46091;46.512;6.626;2023-06-10T09:01:21;96606.63;;;24.10;66.51
60228;BME280;46091;46.512;6.626;2023-06-10T09:03:24;96610.41;;;24.14;66.48
60228;BME280;46091;46.512;6.626;2023-06-10T09:05:29;96610.41;;;24.14;66.00
60228;BME280;46091;46.512;6.626;2023-06-10T09:07:32;96614.75;;;24.10;66.08
60228;BME280;46091;46.512;6.626;2023-06-10T09:09:36;96607.72;;;24.09;65.71
60228;BME280;46091;46.512;6.626;2023-06-10T09:11:40;96609.06;;;24.11;65.66
60228;BME280;46091;46.512;6.626;2023-06-10T09:13:44;96609.31;;;24.15;65.61
60228;BME280;46091;46.512;6.626;2023-06-10T09:15:47;96604.13;;;24.19;65.53
60228;BME280;46091;46.512;6.626;2023-06-10T09:17:52;96612.22;;;24.24;65.22
60228;BME280;46091;46.512;6.626;2023-06-10T09:19:55;96604.63;;;24.26;65.39
60228;BME280;46091;46.512;6.626;2023-06-10T09:22:00;96613.53;;;24.26;65.05
60228;BME280;46091;46.512;6.626;2023-06-10T09:24:04;96615.13;;;24.27;64.99
60228;BME280;46091;46.512;6.626;2023-06-10T09:26:08;96615.66;;;24.29;64.66
60228;BME280;46091;46.512;6.626;2023-06-10T09:28:14;96616.75;;;24.28;64.88
60228;BME280;46091;46.512;6.626;2023-06-10T09:30:28;96617.63;;;24.24;64.14
60228;BME280;46091;46.512;6.626;2023-06-10T09:32:31;96614.94;;;24.19;64.31
60228;BME280;46091;46.512;6.626;2023-06-10T09:34:36;96614.66;;;24.20;64.26
60228;BME280;46091;46.512;6.626;2023-06-10T09:36:39;96611.91;;;24.25;64.15
60228;BME280;46091;46.512;6.626;2023-06-10T09:38:44;96605.44;;;24.26;64.22
60228;BME280;46091;46.512;6.626;2023-06-10T09:40:50;96617.63;;;24.19;63.92
60228;BME280;46091;46.512;6.626;2023-06-10T09:42:55;96618.50;;;24.14;63.72
60228;BME280;46091;46.512;6.626;2023-06-10T09:44:57;96612.03;;;24.10;63.82
60228;BME280;46091;46.512;6.626;2023-06-10T09:47:00;96609.41;;;24.05;63.83
60228;BME280;46091;46.512;6.626;2023-06-10T09:49:04;96611.59;;;24.03;63.57
60228;BME280;46091;46.512;6.626;2023-06-10T09:51:09;96606.72;;;24.00;63.74
60228;BME280;46091;46.512;6.626;2023-06-10T09:53:12;96613.19;;;24.04;63.35
60228;BME280;46091;46.512;6.626;2023-06-10T09:55:18;96611.59;;;24.03;63.11
60228;BME280;46091;46.512;6.626;2023-06-10T09:57:21;96602.13;;;24.00;63.37
60228;BME280;46091;46.512;6.626;2023-06-10T09:59:28;96602.38;;;24.04;63.44
60228;BME280;46091;46.512;6.626;2023-06-10T10:01:32;96602.34;;;24.09;63.01
60228;BME280;46091;46.512;6.626;2023-06-10T10:03:43;96599.06;;;24.12;63.17
60228;BME280;46091;46.512;6.626;2023-06-10T10:05:58;96595.22;;;24.18;62.88
60228;BME280;46091;46.512;6.626;2023-06-10T10:08:02;96593.81;;;24.26;62.43
60228;BME280;46091;46.512;6.626;2023-06-10T10:10:05;96593.25;;;24.29;62.18
60228;BME280;46091;46.512;6.626;2023-06-10T10:12:12;96592.44;;;24.28;62.15
60228;BME280;46091;46.512;6.626;2023-06-10T10:14:16;96595.13;;;24.28;62.19
60228;BME280;46091;46.512;6.626;2023-06-10T10:16:20;96596.50;;;24.31;62.01
60228;BME280;46091;46.512;6.626;2023-06-10T10:18:25;96598.91;;;24.32;62.00
60228;BME280;46091;46.512;6.626;2023-06-10T10:20:33;96597.50;;;24.35;61.73
60228;BME280;46091;46.512;6.626;2023-06-10T10:22:38;96594.56;;;24.36;61.50
60228;BME280;46091;46.512;6.626;2023-06-10T10:24:46;96591.56;;;24.38;61.27
60228;BME280;46091;46.512;6.626;2023-06-10T10:26:50;96595.06;;;24.38;61.28
60228;BME280;46091;46.512;6.626;2023-06-10T10:29:01;96589.09;;;24.42;61.53
60228;BME280;46091;46.512;6.626;2023-06-10T10:31:09;96591.22;;;24.45;61.09
60228;BME280;46091;46.512;6.626;2023-06-10T10:33:17;96595.25;;;24.47;61.13
60228;BME280;46091;46.512;6.626;2023-06-10T10:35:21;96594.69;;;24.50;60.55
60228;BME280;46091;46.512;6.626;2023-06-10T10:37:26;96593.88;;;24.50;60.43
60228;BME280;46091;46.512;6.626;2023-06-10T10:39:29;96590.06;;;24.51;60.68
60228;BME280;46091;46.512;6.626;2023-06-10T10:41:33;96597.09;;;24.52;60.50
60228;BME280;46091;46.512;6.626;2023-06-10T10:43:37;96593.59;;;24.51;60.15
60228;BME280;46091;46.512;6.626;2023-06-10T10:45:41;96591.97;;;24.50;60.42
60228;BME280;46091;46.512;6.626;2023-06-10T10:47:45;96590.38;;;24.49;59.89
60228;BME280;46091;46.512;6.626;2023-06-10T10:49:51;96583.88;;;24.50;59.87
60228;BME280;46091;46.512;6.626;2023-06-10T10:51:55;96590.06;;;24.51;59.63
60228;BME280;46091;46.512;6.626;2023-06-10T10:56:16;96584.66;;;24.51;59.35
60228;BME280;46091;46.512;6.626;2023-06-10T10:58:24;96589.50;;;24.54;59.23
60228;BME280;46091;46.512;6.626;2023-06-10T11:00:28;96584.09;;;24.54;59.05
60228;BME280;46091;46.512;6.626;2023-06-10T11:02:35;96584.38;;;24.52;59.17
60228;BME280;46091;46.512;6.626;2023-06-10T11:04:45;96584.59;;;24.56;59.03
60228;BME280;46091;46.512;6.626;2023-06-10T11:06:52;96590.75;;;24.61;58.99
60228;BME280;46091;46.512;6.626;2023-06-10T11:08:56;96585.00;;;24.68;58.54
60228;BME280;46091;46.512;6.626;2023-06-10T11:11:18;96586.63;;;24.69;58.35
60228;BME280;46091;46.512;6.626;2023-06-10T11:13:22;96592.56;;;24.71;58.48
60228;BME280;46091;46.512;6.626;2023-06-10T11:15:26;96586.84;;;24.73;58.55
60228;BME280;46091;46.512;6.626;2023-06-10T11:17:29;96590.06;;;24.75;58.18
60228;BME280;46091;46.512;6.626;2023-06-10T11:19:34;96585.97;;;24.77;58.15
60228;BME280;46091;46.512;6.626;2023-06-10T11:21:58;96591.09;;;24.79;58.07
60228;BME280;46091;46.512;6.626;2023-06-10T11:24:11;96588.38;;;24.79;57.79
60228;BME280;46091;46.512;6.626;2023-06-10T11:26:19;96589.72;;;24.81;57.64
60228;BME280;46091;46.512;6.626;2023-06-10T11:28:27;96587.53;;;24.83;57.79
60228;BME280;46091;46.512;6.626;2023-06-10T11:30:34;96579.13;;;24.85;57.40
60228;BME280;46091;46.512;6.626;2023-06-10T11:32:37;96587.47;;;24.88;57.38
60228;BME280;46091;46.512;6.626;2023-06-10T11:34:42;96582.56;;;24.90;57.17
60228;BME280;46091;46.512;6.626;2023-06-10T11:36:45;96589.31;;;24.93;57.21
60228;BME280;46091;46.512;6.626;2023-06-10T11:38:49;96587.72;;;24.92;57.11
60228;BME280;46091;46.512;6.626;2023-06-10T11:40:52;96587.94;;;24.95;57.08
60228;BME280;46091;46.512;6.626;2023-06-10T11:42:55;96584.94;;;24.97;56.79
60228;BME280;46091;46.512;6.626;2023-06-10T11:44:58;96587.03;;;25.00;56.70
60228;BME280;46091;46.512;6.626;2023-06-10T11:47:04;96583.28;;;25.01;56.60
60228;BME280;46091;46.512;6.626;2023-06-10T11:49:07;96585.97;;;25.01;56.28
60228;BME280;46091;46.512;6.626;2023-06-10T11:51:11;96590.03;;;25.04;56.65
60228;BME280;46091;46.512;6.626;2023-06-10T11:53:15;96582.97;;;25.03;56.25
60228;BME280;46091;46.512;6.626;2023-06-10T11:55:17;96590.53;;;25.06;56.20
60228;BME280;46091;46.512;6.626;2023-06-10T11:57:20;96582.94;;;25.08;56.40
60228;BME280;46091;46.512;6.626;2023-06-10T11:59:27;96582.34;;;25.11;56.22
60228;BME280;46091;46.512;6.626;2023-06-10T12:01:31;96582.59;;;25.14;55.91
60228;BME280;46091;46.512;6.626;2023-06-10T12:03:37;96584.19;;;25.15;56.11
60228;BME280;46091;46.512;6.626;2023-06-10T12:05:40;96580.16;;;25.13;56.00
60228;BME280;46091;46.512;6.626;2023-06-10T12:08:09;96574.81;;;25.08;55.72
60228;BME280;46091;46.512;6.626;2023-06-10T12:10:13;96574.53;;;25.09;56.17
60228;BME280;46091;46.512;6.626;2023-06-10T12:12:28;96575.53;;;25.13;55.95
60228;BME280;46091;46.512;6.626;2023-06-10T12:14:50;96568.75;;;25.16;55.73
60228;BME280;46091;46.512;6.626;2023-06-10T12:16:56;96575.78;;;25.17;55.35
60228;BME280;46091;46.512;6.626;2023-06-10T12:19:03;96571.47;;;25.16;55.57
60228;BME280;46091;46.512;6.626;2023-06-10T12:21:16;96564.50;;;25.10;55.54
60228;BME280;46091;46.512;6.626;2023-06-10T12:23:20;96564.00;;;25.08;55.50
60228;BME280;46091;46.512;6.626;2023-06-10T12:25:25;96564.06;;;25.03;55.70
60228;BME280;46091;46.512;6.626;2023-06-10T12:27:29;96557.03;;;25.02;55.72
60228;BME280;46091;46.512;6.626;2023-06-10T12:29:32;96564.59;;;25.00;55.94
60228;BME280;46091;46.512;6.626;2023-06-10T12:31:57;96567.31;;;25.00;56.17
60228;BME280;46091;46.512;6.626;2023-06-10T12:34:09;96558.19;;;24.95;55.90
60228;BME280;46091;46.512;6.626;2023-06-10T12:36:16;96554.72;;;24.90;55.78
60228;BME280;46091;46.512;6.626;2023-06-10T12:38:25;96558.81;;;24.87;55.95
60228;BME280;46091;46.512;6.626;2023-06-10T12:40:30;96548.00;;;24.87;56.24
60228;BME280;46091;46.512;6.626;2023-06-10T12:42:35;96548.31;;;24.86;56.13
60228;BME280;46091;46.512;6.626;2023-06-10T12:44:39;96559.63;;;24.88;55.79
60228;BME280;46091;46.512;6.626;2023-06-10T12:46:42;96546.91;;;24.88;55.93
60228;BME280;46091;46.512;6.626;2023-06-10T12:48:49;96555.31;;;24.87;55.71
60228;BME280;46091;46.512;6.626;2023-06-10T12:50:58;96549.09;;;24.86;55.61
60228;BME280;46091;46.512;6.626;2023-06-10T12:53:01;96547.50;;;24.85;55.89
60228;BME280;46091;46.512;6.626;2023-06-10T12:55:06;96546.91;;;24.88;55.83
60228;BME280;46091;46.512;6.626;2023-06-10T12:57:10;96547.41;;;24.90;55.42
60228;BME280;46091;46.512;6.626;2023-06-10T12:59:13;96545.81;;;24.89;55.52
60228;BME280;46091;46.512;6.626;2023-06-10T13:01:16;96539.91;;;24.87;55.30
60228;BME280;46091;46.512;6.626;2023-06-10T13:03:19;96535.88;;;24.85;55.10
60228;BME280;46091;46.512;6.626;2023-06-10T13:05:22;96536.47;;;24.82;55.26
60228;BME280;46091;46.512;6.626;2023-06-10T13:07:25;96527.00;;;24.79;54.91
60228;BME280;46091;46.512;6.626;2023-06-10T13:09:28;96533.00;;;24.76;55.07
60228;BME280;46091;46.512;6.626;2023-06-10T13:11:33;96522.78;;;24.73;55.24
60228;BME280;46091;46.512;6.626;2023-06-10T13:13:36;96532.22;;;24.76;54.87
60228;BME280;46091;46.512;6.626;2023-06-10T13:15:40;96532.22;;;24.76;54.83
60228;BME280;46091;46.512;6.626;2023-06-10T13:17:45;96526.00;;;24.75;54.91
60228;BME280;46091;46.512;6.626;2023-06-10T13:19:51;96527.59;;;24.76;54.57
60228;BME280;46091;46.512;6.626;2023-06-10T13:21:53;96526.50;;;24.77;55.06
60228;BME280;46091;46.512;6.626;2023-06-10T13:23:56;96525.41;;;24.78;54.88
60228;BME280;46091;46.512;6.626;2023-06-10T13:25:59;96518.91;;;24.79;54.58
60228;BME280;46091;46.512;6.626;2023-06-10T13:28:05;96523.47;;;24.84;54.58
60228;BME280;46091;46.512;6.626;2023-06-10T13:30:09;96515.25;;;24.89;54.37
60228;BME280;46091;46.512;6.626;2023-06-10T13:32:13;96509.31;;;24.92;54.49
60228;BME280;46091;46.512;6.626;2023-06-10T13:34:16;96513.88;;;24.91;54.26
60228;BME280;46091;46.512;6.626;2023-06-10T13:36:19;96516.53;;;24.96;54.02
60228;BME280;46091;46.512;6.626;2023-06-10T13:38:22;96511.72;;;24.93;54.26
60228;BME280;46091;46.512;6.626;2023-06-10T13:40:25;96502.56;;;24.89;54.27
60228;BME280;46091;46.512;6.626;2023-06-10T13:42:27;96505.03;;;24.86;54.03
60228;BME280;46091;46.512;6.626;2023-06-10T13:44:32;96504.44;;;24.89;54.13
60228;BME280;46091;46.512;6.626;2023-06-10T13:46:37;96510.09;;;24.92;54.08
60228;BME280;46091;46.512;6.626;2023-06-10T13:48:40;96505.19;;;24.94;54.03
60228;BME280;46091;46.512;6.626;2023-06-10T13:50:43;96507.91;;;24.94;53.92
60228;BME280;46091;46.512;6.626;2023-06-10T13:52:47;96498.19;;;24.93;53.52
60228;BME280;46091;46.512;6.626;2023-06-10T13:54:50;96509.31;;;24.92;53.49
60228;BME280;46091;46.512;6.626;2023-06-10T13:56:53;96513.38;;;24.89;53.69
60228;BME280;46091;46.512;6.626;2023-06-10T13:58:56;96508.03;;;24.84;53.82
60228;BME280;46091;46.512;6.626;2023-06-10T14:01:00;96506.13;;;24.85;53.66
60228;BME280;46091;46.512;6.626;2023-06-10T14:03:03;96503.72;;;24.83;53.50
60228;BME280;46091;46.512;6.626;2023-06-10T14:05:07;96512.66;;;24.84;53.85
60228;BME280;46091;46.512;6.626;2023-06-10T14:07:11;96509.34;;;24.87;53.49
60228;BME280;46091;46.512;6.626;2023-06-10T14:09:14;96515.25;;;24.89;53.43
60228;BME280;46091;46.512;6.626;2023-06-10T14:11:18;96514.72;;;24.92;53.59
60228;BME280;46091;46.512;6.626;2023-06-10T14:13:21;96508.19;;;24.93;53.21
60228;BME280;46091;46.512;6.626;2023-06-10T14:15:24;96507.91;;;24.94;53.50
60228;BME280;46091;46.512;6.626;2023-06-10T14:17:28;96500.59;;;24.95;53.38
60228;BME280;46091;46.512;6.626;2023-06-10T14:19:31;96506.31;;;24.93;52.92
60228;BME280;46091;46.512;6.626;2023-06-10T14:21:34;96502.50;;;24.94;53.22
60228;BME280;46091;46.512;6.626;2023-06-10T14:23:37;96504.41;;;24.94;53.01
60228;BME280;46091;46.512;6.626;2023-06-10T14:25:40;96502.00;;;24.92;52.62
60228;BME280;46091;46.512;6.626;2023-06-10T14:27:43;96498.47;;;24.92;52.92
60228;BME280;46091;46.512;6.626;2023-06-10T14:29:48;96494.72;;;24.88;52.53
60228;BME280;46091;46.512;6.626;2023-06-10T14:31:51;96494.53;;;24.84;52.64
60228;BME280;46091;46.512;6.626;2023-06-10T14:33:55;96495.13;;;24.81;52.58
60228;BME280;46091;46.512;6.626;2023-06-10T14:35:58;96499.41;;;24.82;52.51
60228;BME280;46091;46.512;6.626;2023-06-10T14:38:01;96492.13;;;24.83;52.56
60228;BME280;46091;46.512;6.626;2023-06-10T14:40:09;96490.78;;;24.80;52.58
60228;BME280;46091;46.512;6.626;2023-06-10T14:42:12;96492.41;;;24.81;52.30
60228;BME280;46091;46.512;6.626;2023-06-10T14:44:15;96487.22;;;24.85;52.44
60228;BME280;46091;46.512;6.626;2023-06-10T14:46:17;96478.00;;;24.86;52.19
60228;BME280;46091;46.512;6.626;2023-06-10T14:48:22;96482.03;;;24.88;52.55
60228;BME280;46091;46.512;6.626;2023-06-10T14:50:27;96482.53;;;24.90;52.53
60228;BME280;46091;46.512;6.626;2023-06-10T14:52:29;96484.13;;;24.91;52.17
60228;BME280;46091;46.512;6.626;2023-06-10T14:54:32;96478.47;;;24.93;52.46
60228;BME280;46091;46.512;6.626;2023-06-10T14:56:35;96481.97;;;24.93;51.99
60228;BME280;46091;46.512;6.626;2023-06-10T14:58:38;96480.56;;;24.96;52.03
60228;BME280;46091;46.512;6.626;2023-06-10T15:00:41;96473.75;;;24.98;52.01
60228;BME280;46091;46.512;6.626;2023-06-10T15:02:44;96468.88;;;25.01;51.71
60228;BME280;46091;46.512;6.626;2023-06-10T15:04:49;96467.53;;;25.03;51.73
60228;BME280;46091;46.512;6.626;2023-06-10T15:06:53;96461.28;;;25.03;51.77
60228;BME280;46091;46.512;6.626;2023-06-10T15:08:56;96467.22;;;25.05;51.49
60228;BME280;46091;46.512;6.626;2023-06-10T15:10:59;96466.94;;;25.06;51.41
60228;BME280;46091;46.512;6.626;2023-06-10T15:13:03;96478.25;;;25.08;51.33
60228;BME280;46091;46.512;6.626;2023-06-10T15:15:07;96461.72;;;25.10;51.53
60228;BME280;46091;46.512;6.626;2023-06-10T15:17:10;96461.44;;;25.11;51.22
60228;BME280;46091;46.512;6.626;2023-06-10T15:19:13;96463.34;;;25.11;51.46
60228;BME280;46091;46.512;6.626;2023-06-10T15:21:16;96460.34;;;25.12;51.43
60228;BME280;46091;46.512;6.626;2023-06-10T15:23:20;96450.31;;;25.13;51.28
60228;BME280;46091;46.512;6.626;2023-06-10T15:25:23;96451.91;;;25.14;51.06
60228;BME280;46091;46.512;6.626;2023-06-10T15:27:32;96452.97;;;25.18;51.30
60228;BME280;46091;46.512;6.626;2023-06-10T15:29:35;96452.44;;;25.16;51.01
60228;BME280;46091;46.512;6.626;2023-06-10T15:31:37;96461.88;;;25.18;50.99
60228;BME280;46091;46.512;6.626;2023-06-10T15:33:40;96454.34;;;25.15;51.06
60228;BME280;46091;46.512;6.626;2023-06-10T15:35:48;96459.22;;;25.13;50.84
60228;BME280;46091;46.512;6.626;2023-06-10T15:37:51;96448.41;;;25.13;50.75
60228;BME280;46091;46.512;6.626;2023-06-10T15:39:55;96448.16;;;25.15;50.92
60228;BME280;46091;46.512;6.626;2023-06-10T15:41:58;96451.84;;;25.19;50.69
60228;BME280;46091;46.512;6.626;2023-06-10T15:44:01;96447.44;;;25.23;50.87
60228;BME280;46091;46.512;6.626;2023-06-10T15:46:04;96448.25;;;25.23;50.65
60228;BME280;46091;46.512;6.626;2023-06-10T15:48:07;96453.38;;;25.25;50.39
60228;BME280;46091;46.512;6.626;2023-06-10T15:50:10;96456.88;;;25.25;50.80
60228;BME280;46091;46.512;6.626;2023-06-10T15:52:13;96450.41;;;25.27;50.42
60228;BME280;46091;46.512;6.626;2023-06-10T15:54:16;96445.78;;;25.27;50.63
60228;BME280;46091;46.512;6.626;2023-06-10T15:56:20;96443.34;;;25.25;50.35
60228;BME280;46091;46.512;6.626;2023-06-10T15:58:24;96440.94;;;25.24;50.63
60228;BME280;46091;46.512;6.626;2023-06-10T16:00:27;96436.88;;;25.27;50.47
60228;BME280;46091;46.512;6.626;2023-06-10T16:02:30;96436.56;;;25.28;50.34
60228;BME280;46091;46.512;6.626;2023-06-10T16:04:37;96436.56;;;25.28;50.26
60228;BME280;46091;46.512;6.626;2023-06-10T16:06:40;96431.72;;;25.25;50.57
60228;BME280;46091;46.512;6.626;2023-06-10T16:08:43;96439.84;;;25.25;50.40
60228;BME280;46091;46.512;6.626;2023-06-10T16:10:47;96442.03;;;25.23;50.26
60228;BME280;46091;46.512;6.626;2023-06-10T16:12:51;96443.16;;;25.22;50.60
60228;BME280;46091;46.512;6.626;2023-06-10T16:14:54;96436.94;;;25.21;50.38
60228;BME280;46091;46.512;6.626;2023-06-10T16:16:57;96436.44;;;25.19;50.15
60228;BME280;46091;46.512;6.626;2023-06-10T16:19:00;96433.22;;;25.17;50.23
60228;BME280;46091;46.512;6.626;2023-06-10T16:21:03;96433.00;;;25.14;50.49
60228;BME280;46091;46.512;6.626;2023-06-10T16:23:07;96429.22;;;25.15;50.64
60228;BME280;46091;46.512;6.626;2023-06-10T16:25:10;96431.91;;;25.15;50.42
60228;BME280;46091;46.512;6.626;2023-06-10T16:27:13;96437.31;;;25.15;50.25
60228;BME280;46091;46.512;6.626;2023-06-10T16:29:17;96433.53;;;25.16;50.60
60228;BME280;46091;46.512;6.626;2023-06-10T16:31:20;96428.09;;;25.16;50.62
60228;BME280;46091;46.512;6.626;2023-06-10T16:33:23;96423.00;;;25.14;50.31
60228;BME280;46091;46.512;6.626;2023-06-10T16:35:26;96422.16;;;25.14;50.40
60228;BME280;46091;46.512;6.626;2023-06-10T16:37:29;96418.66;;;25.13;50.63
60228;BME280;46091;46.512;6.626;2023-06-10T16:39:32;96424.06;;;25.13;50.32
60228;BME280;46091;46.512;6.626;2023-06-10T16:41:35;96422.47;;;25.12;50.41
60228;BME280;46091;46.512;6.626;2023-06-10T16:43:38;96427.38;;;25.10;50.67
60228;BME280;46091;46.512;6.626;2023-06-10T16:45:42;96428.19;;;25.11;50.70
60228;BME280;46091;46.512;6.626;2023-06-10T16:47:45;96428.97;;;25.11;50.44
60228;BME280;46091;46.512;6.626;2023-06-10T16:49:48;96423.88;;;25.10;50.78
60228;BME280;46091;46.512;6.626;2023-06-10T16:51:51;96427.38;;;25.10;50.65
60228;BME280;46091;46.512;6.626;2023-06-10T16:53:54;96423.88;;;25.10;50.57
60228;BME280;46091;46.512;6.626;2023-06-10T16:55:57;96429.28;;;25.10;50.39
60228;BME280;46091;46.512;6.626;2023-06-10T16:58:04;96430.38;;;25.09;50.62
60228;BME280;46091;46.512;6.626;2023-06-10T17:00:08;96429.88;;;25.07;50.76
60228;BME280;46091;46.512;6.626;2023-06-10T17:02:12;96432.28;;;25.08;50.51
60228;BME280;46091;46.512;6.626;2023-06-10T17:04:15;96433.38;;;25.07;50.81
60228;BME280;46091;46.512;6.626;2023-06-10T17:06:18;96439.88;;;25.06;50.26
60228;BME280;46091;46.512;6.626;2023-06-10T17:08:22;96437.19;;;25.06;50.48
60228;BME280;46091;46.512;6.626;2023-06-10T17:10:25;96437.19;;;25.06;50.66
60228;BME280;46091;46.512;6.626;2023-06-10T17:12:28;96440.69;;;25.07;50.69
60228;BME280;46091;46.512;6.626;2023-06-10T17:14:31;96439.09;;;25.06;50.31
60228;BME280;46091;46.512;6.626;2023-06-10T17:16:35;96441.00;;;25.05;50.80
60228;BME280;46091;46.512;6.626;2023-06-10T17:18:39;96439.09;;;25.06;50.46
60228;BME280;46091;46.512;6.626;2023-06-10T17:20:42;96439.59;;;25.08;50.39
60228;BME280;46091;46.512;6.626;2023-06-10T17:22:45;96435.28;;;25.07;50.62
60228;BME280;46091;46.512;6.626;2023-06-10T17:24:50;96436.88;;;25.08;50.52
60228;BME280;46091;46.512;6.626;2023-06-10T17:26:54;96434.19;;;25.08;50.32
60228;BME280;46091;46.512;6.626;2023-06-10T17:28:57;96442.00;;;25.09;50.39
60228;BME280;46091;46.512;6.626;2023-06-10T17:30:59;96454.72;;;25.09;50.17
60228;BME280;46091;46.512;6.626;2023-06-10T17:33:03;96450.91;;;25.10;50.30
60228;BME280;46091;46.512;6.626;2023-06-10T17:35:08;96452.53;;;25.11;50.53
60228;BME280;46091;46.512;6.626;2023-06-10T17:37:11;96457.94;;;25.11;50.15
60228;BME280;46091;46.512;6.626;2023-06-10T17:39:14;96457.63;;;25.12;50.06
60228;BME280;46091;46.512;6.626;2023-06-10T17:41:17;96455.72;;;25.13;50.06
60228;BME280;46091;46.512;6.626;2023-06-10T17:43:20;96451.91;;;25.14;49.97
60228;BME280;46091;46.512;6.626;2023-06-10T17:45:23;96454.34;;;25.15;50.20
60228;BME280;46091;46.512;6.626;2023-06-10T17:47:26;96454.84;;;25.17;50.03
60228;BME280;46091;46.512;6.626;2023-06-10T17:49:29;96447.53;;;25.18;50.31
60228;BME280;46091;46.512;6.626;2023-06-10T17:51:35;96444.84;;;25.18;50.14
60228;BME280;46091;46.512;6.626;2023-06-10T17:53:39;96452.97;;;25.18;50.00
60228;BME280;46091;46.512;6.626;2023-06-10T17:55:42;96455.97;;;25.16;49.88
60228;BME280;46091;46.512;6.626;2023-06-10T17:57:45;96451.34;;;25.17;50.18
60228;BME280;46091;46.512;6.626;2023-06-10T17:59:47;96459.16;;;25.18;50.01
60228;BME280;46091;46.512;6.626;2023-06-10T18:01:51;96460.78;;;25.19;49.93
60228;BME280;46091;46.512;6.626;2023-06-10T18:03:53;96456.16;;;25.20;50.13
60228;BME280;46091;46.512;6.626;2023-06-10T18:06:00;96455.38;;;25.19;50.35
60228;BME280;46091;46.512;6.626;2023-06-10T18:08:04;96463.19;;;25.21;50.44
60228;BME280;46091;46.512;6.626;2023-06-10T18:10:08;96458.28;;;25.23;50.04
60228;BME280;46091;46.512;6.626;2023-06-10T18:12:11;96455.56;;;25.23;50.14
60228;BME280;46091;46.512;6.626;2023-06-10T18:14:14;96462.59;;;25.24;50.13
60228;BME280;46091;46.512;6.626;2023-06-10T18:16:17;96472.59;;;25.23;50.11
60228;BME280;46091;46.512;6.626;2023-06-10T18:18:20;96469.91;;;25.23;50.06
60228;BME280;46091;46.512;6.626;2023-06-10T18:20:23;96466.91;;;25.25;49.97
60228;BME280;46091;46.512;6.626;2023-06-10T18:22:26;96471.22;;;25.26;50.31
60228;BME280;46091;46.512;6.626;2023-06-10T18:24:31;96472.03;;;25.27;50.06
60228;BME280;46091;46.512;6.626;2023-06-10T18:26:33;96477.22;;;25.23;49.98
60228;BME280;46091;46.512;6.626;2023-06-10T18:28:36;96473.00;;;25.17;50.15
60228;BME280;46091;46.512;6.626;2023-06-10T18:30:39;96470.84;;;25.14;50.35
60228;BME280;46091;46.512;6.626;2023-06-10T18:32:42;96471.69;;;25.14;50.00
60228;BME280;46091;46.512;6.626;2023-06-10T18:34:45;96464.38;;;25.15;49.92
60228;BME280;46091;46.512;6.626;2023-06-10T18:36:50;96470.59;;;25.15;50.00
60228;BME280;46091;46.512;6.626;2023-06-10T18:38:54;96473.56;;;25.14;50.21
60228;BME280;46091;46.512;6.626;2023-06-10T18:40:58;96478.97;;;25.14;50.50
60228;BME280;46091;46.512;6.626;2023-06-10T18:43:01;96477.38;;;25.13;50.40
60228;BME280;46091;46.512;6.626;2023-06-10T18:45:05;96479.56;;;25.11;50.22
60228;BME280;46091;46.512;6.626;2023-06-10T18:47:09;96479.56;;;25.11;50.39
60228;BME280;46091;46.512;6.626;2023-06-10T18:49:12;96479.56;;;25.11;50.16
60228;BME280;46091;46.512;6.626;2023-06-10T18:51:16;96488.78;;;25.10;50.10
60228;BME280;46091;46.512;6.626;2023-06-10T18:53:19;96489.56;;;25.10;50.50
60228;BME280;46091;46.512;6.626;2023-06-10T18:55:22;96486.06;;;25.10;50.12
60228;BME280;46091;46.512;6.626;2023-06-10T18:57:26;96492.59;;;25.09;50.55
60228;BME280;46091;46.512;6.626;2023-06-10T18:59:30;96501.00;;;25.07;50.50